Aeroporto :
LOGIN :

Iscrizione | Disclaimer

   EN    FR    IT 

 










Sommario :    VFR   VFR Marginale   IFR   IFR Intensivo   IFR Molto Intensivo
Visibilità : 
Base nubi : 
>= 8 km
>= 3000ft
5 / 8 km
1000 / 3000 ft
1500m / 5 km
500 / 1000 ft
800 / 1500m
200 / 500 ft
< 800m
< 200 ft
Simboli :   Temporali  Nebbia  Neve Forte  Precipitazioni Forti  Vento > 20 kt
SIGMETs :   Varie  Temporali  Ghiacco  Turbolenza  Onda orograficha  Ceneri Vulcaniche






- Altitudine del aeroporto : 135 ft
- Codice IATA : EDI


EGPH - Edinburgh

ULTIMO METAR :
  • 220120Z 23006KT 9999 BKN032 12/09 Q1010

METARs OBSOLETI :
  • 220050Z 23009KT 9999 OVC028 12/09 Q1010
  • 220020Z 23009KT 9999 OVC027 12/09 Q1011
  • 212350Z 23010KT 9000 OVC025 12/09 Q1011
  • 212320Z 24009KT 9999 BKN024 12/09 Q1011
  • 212250Z 23010KT 9999 BKN025 12/09 Q1011

TAF AMD TAF EGPH
Valido dal 22 a 00 ore il 23 a 00 ore UTC


220002Z 2200/2224 22009KT 9999 SCT025
PROB40
TEMPO 2200/2216 8000 BKN014
TEMPO 2211/2221 22017G27KT
TEMPO 2220/2224 7000 -RA BKN012
PROB30
TEMPO 2220/2223 4000 RADZ +RA
ATIS : +44 131 339 2823



MetMap, La meteo Aeronautica in un colpo d'occhio ! - Copyright ORBIFLY Dicembre 2007 - Disclaimer

ORBIFLY MET'MAP TEAM :

Programmazione e sviluppo : Alexandra Zaïnal
Concezione : Baudouin d'Aumeries
Aiuto per la programmazione : Marc-Olivier Méhu
Supporto tecnico e logistico : Manuel Goepfert
Aiuto per la traduzione : Arnaldo La Scala

Contatto : metmap@orbifly.com




FONTI E CREDITI :

   NOAA